Weather at Tatoi Airport

Public forecast

Using degrees Celsius for public forecast. Weather courtesy of forecast.io.

Closest aviation weather report (METAR) to Tatoi Airport

Closest report is Elefsis Air Base, 11.1 nm (20.6 km) WSW.

2024/05/24 17:20 (retrieved 13 minutes ago)

LGEL 241720Z 00000KT 9999 FEW025 23/14 Q1015

Closest aviation forecast (TAF) to Tatoi Airport

Closest forecast is Elefsis Air Base, 11.1 nm (20.6 km) WSW.

2024/05/24 12:12 (retrieved 5 hours ago)

TAF LGEL 241100Z 2412/2512 20012KT 9999 SCT025 BECMG 2416/2418 VRB05KT TEMPO 2413/2416 20012G22KT BECMG 2508/2510 19010KT